Wetterdaten: Woche 26.09.16 - 02.10.16 (KW39)
Datum Zeit Temp. A. Feuchte A. Luftdruck Regen Wind Richtung Taupunkt Windchill Windben
26.09.2016 00:00 10,6 C 82 % 1020,2 hPa 0,0 l/m 0,0 km/h N 7,6 C 10,6 C 0,0 km/h
26.09.2016 01:00 10,2 C 82 % 1020,2 hPa 0,0 l/m 0,0 km/h N 7,3 C 10,2 C 0,0 km/h
26.09.2016 02:00 9,5 C 82 % 1020,3 hPa 0,0 l/m 0,0 km/h N 6,6 C 9,5 C 0,0 km/h
26.09.2016 03:00 9,1 C 83 % 1020,3 hPa 0,0 l/m 0,0 km/h N 6,3 C 9,1 C 0,0 km/h
26.09.2016 04:00 9,5 C 83 % 1020,3 hPa 0,0 l/m 0,0 km/h N 6,6 C 9,5 C 0,4 km/h
26.09.2016 05:00 9,7 C 83 % 1020,3 hPa 0,0 l/m 0,0 km/h N 6,9 C 9,7 C 0,0 km/h
26.09.2016 06:00 9,2 C 83 % 1020,7 hPa 0,0 l/m 0,0 km/h N 6,5 C 9,2 C 0,4 km/h
26.09.2016 07:00 9,5 C 83 % 1021,3 hPa 0,0 l/m 0,0 km/h N 6,7 C 9,5 C 0,4 km/h
26.09.2016 08:00 10,5 C 83 % 1021,8 hPa 0,0 l/m 0,0 km/h N 7,7 C 10,5 C 0,0 km/h
26.09.2016 09:00 12,1 C 82 % 1022,1 hPa 0,0 l/m 0,0 km/h N 9,1 C 12,1 C 0,0 km/h
26.09.2016 10:00 14,6 C 78 % 1022,0 hPa 0,0 l/m 0,0 km/h N 10,6 C 14,6 C 0,0 km/h
26.09.2016 11:00 16,3 C 71 % 1021,8 hPa 0,0 l/m 0,1 km/h N 10,9 C 16,3 C 2,0 km/h
26.09.2016 12:00 19,2 C 63 % 1021,4 hPa 0,0 l/m 0,2 km/h N 11,9 C 19,2 C 4,4 km/h
26.09.2016 13:00 20,8 C 57 % 1021,1 hPa 0,0 l/m 0,9 km/h N 11,8 C 20,8 C 6,4 km/h
26.09.2016 14:00 20,6 C 57 % 1020,7 hPa 0,0 l/m 0,7 km/h N 11,8 C 20,6 C 6,4 km/h
26.09.2016 15:00 21,1 C 57 % 1020,6 hPa 0,0 l/m 0,2 km/h N 12,1 C 21,1 C 4,0 km/h
26.09.2016 16:00 20,3 C 60 % 1020,5 hPa 0,0 l/m 0,0 km/h N 12,2 C 20,3 C 0,8 km/h
26.09.2016 17:00 20,3 C 59 % 1020,5 hPa 0,0 l/m 0,0 km/h N 12,0 C 20,3 C 2,0 km/h
26.09.2016 18:00 18,9 C 62 % 1020,8 hPa 0,0 l/m 0,0 km/h N 11,3 C 18,9 C 0,0 km/h
26.09.2016 19:00 16,2 C 71 % 1021,2 hPa 0,0 l/m 0,0 km/h N 11,0 C 16,2 C 0,0 km/h
26.09.2016 20:00 14,1 C 76 % 1021,7 hPa 0,0 l/m 0,0 km/h N 9,9 C 14,1 C 0,0 km/h
26.09.2016 21:00 12,6 C 80 % 1022,1 hPa 0,0 l/m 0,0 km/h N 9,2 C 12,6 C 0,0 km/h
26.09.2016 22:00 11,8 C 82 % 1022,2 hPa 0,0 l/m 0,0 km/h N 8,8 C 11,8 C 0,4 km/h
26.09.2016 23:00 11,5 C 82 % 1022,0 hPa 0,0 l/m 0,0 km/h N 8,5 C 11,5 C 0,4 km/h
27.09.2016 00:00 10,8 C 82 % 1021,9 hPa 0,0 l/m 0,0 km/h N 7,9 C 10,8 C 0,0 km/h
27.09.2016 01:00 10,1 C 83 % 1022,1 hPa 0,0 l/m 0,0 km/h N 7,2 C 10,1 C 0,0 km/h
27.09.2016 02:00 9,4 C 83 % 1022,2 hPa 0,0 l/m 0,0 km/h N 6,7 C 9,4 C 0,0 km/h
27.09.2016 03:00 9,0 C 83 % 1022,3 hPa 0,0 l/m 0,0 km/h N 6,3 C 9,0 C 0,0 km/h
27.09.2016 04:00 8,6 C 83 % 1022,4 hPa 0,0 l/m 0,0 km/h N 5,9 C 8,6 C 0,0 km/h
27.09.2016 05:00 8,2 C 83 % 1022,6 hPa 0,0 l/m 0,0 km/h N 5,5 C 8,2 C 0,0 km/h
27.09.2016 06:00 7,8 C 83 % 1023,3 hPa 0,0 l/m 0,0 km/h N 5,0 C 7,8 C 0,0 km/h
27.09.2016 07:00 8,0 C 83 % 1024,0 hPa 0,0 l/m 0,0 km/h N 5,3 C 8,0 C 0,0 km/h
27.09.2016 08:00 9,9 C 82 % 1024,2 hPa 0,0 l/m 0,1 km/h N 7,1 C 9,9 C 2,0 km/h
27.09.2016 09:00 11,6 C 82 % 1024,8 hPa 0,0 l/m 0,0 km/h N 8,7 C 11,6 C 1,6 km/h
27.09.2016 10:00 14,2 C 82 % 1025,1 hPa 0,0 l/m 0,2 km/h N 11,1 C 14,2 C 4,0 km/h
27.09.2016 11:00 16,9 C 76 % 1025,3 hPa 0,0 l/m 0,4 km/h N 12,6 C 16,9 C 4,8 km/h
27.09.2016 12:00 18,5 C 69 % 1025,4 hPa 0,0 l/m 0,4 km/h N 12,7 C 18,5 C 6,0 km/h
27.09.2016 13:00 20,2 C 63 % 1025,3 hPa 0,0 l/m 0,5 km/h N 13,0 C 20,2 C 4,8 km/h
27.09.2016 14:00 20,8 C 60 % 1025,1 hPa 0,0 l/m 0,5 km/h N 12,7 C 20,8 C 4,4 km/h
27.09.2016 15:00 20,8 C 59 % 1025,1 hPa 0,0 l/m 0,2 km/h N 12,4 C 20,8 C 3,2 km/h
27.09.2016 16:00 20,3 C 58 % 1025,0 hPa 0,0 l/m 0,0 km/h N 11,8 C 20,3 C 1,2 km/h
27.09.2016 17:00 20,3 C 57 % 1025,1 hPa 0,0 l/m 0,1 km/h N 11,6 C 20,3 C 2,8 km/h
27.09.2016 18:00 19,5 C 60 % 1025,7 hPa 0,0 l/m 0,1 km/h N 11,5 C 19,5 C 1,6 km/h
27.09.2016 19:00 16,8 C 70 % 1026,5 hPa 0,0 l/m 0,2 km/h N 11,2 C 16,8 C 1,6 km/h
27.09.2016 20:00 14,5 C 76 % 1027,0 hPa 0,0 l/m 0,0 km/h N 10,2 C 14,5 C 0,4 km/h
27.09.2016 21:00 13,4 C 80 % 1027,2 hPa 0,0 l/m 0,1 km/h N 9,9 C 13,4 C 2,0 km/h
27.09.2016 22:00 13,2 C 81 % 1027,3 hPa 0,0 l/m 0,2 km/h N 10,0 C 13,2 C 2,4 km/h
27.09.2016 23:00 12,7 C 82 % 1027,4 hPa 0,0 l/m 0,0 km/h N 9,6 C 12,7 C 0,4 km/h
28.09.2016 00:00 12,1 C 82 % 1027,4 hPa 0,0 l/m 0,0 km/h N 9,2 C 12,1 C 0,0 km/h
28.09.2016 01:00 11,6 C 82 % 1027,4 hPa 0,0 l/m 0,0 km/h N 8,6 C 11,6 C 0,8 km/h
28.09.2016 02:00 10,7 C 82 % 1027,4 hPa 0,0 l/m 0,0 km/h N 7,8 C 10,7 C 0,0 km/h
28.09.2016 03:00 10,0 C 82 % 1027,4 hPa 0,0 l/m 0,1 km/h N 7,0 C 10,0 C 2,0 km/h
28.09.2016 04:00 9,6 C 83 % 1027,4 hPa 0,0 l/m 0,0 km/h N 6,8 C 9,6 C 1,6 km/h
28.09.2016 05:00 9,0 C 83 % 1027,4 hPa 0,0 l/m 0,0 km/h N 6,3 C 9,0 C 0,0 km/h
28.09.2016 06:00 8,4 C 83 % 1027,5 hPa 0,0 l/m 0,0 km/h N 5,7 C 8,4 C 0,0 km/h
28.09.2016 07:00 8,3 C 83 % 1027,8 hPa 0,0 l/m 0,0 km/h N 5,6 C 8,3 C 0,0 km/h
28.09.2016 08:00 9,7 C 83 % 1028,0 hPa 0,0 l/m 0,0 km/h N 6,9 C 9,7 C 0,4 km/h
28.09.2016 09:00 12,4 C 82 % 1028,2 hPa 0,0 l/m 0,0 km/h N 9,4 C 12,4 C 1,6 km/h
28.09.2016 10:00 16,2 C 80 % 1028,2 hPa 0,0 l/m 0,0 km/h N 12,6 C 16,2 C 2,0 km/h
28.09.2016 11:00 19,6 C 67 % 1027,9 hPa 0,0 l/m 0,1 km/h N 13,2 C 19,6 C 2,4 km/h
28.09.2016 12:00 21,5 C 58 % 1027,2 hPa 0,0 l/m 1,3 km/h N 12,8 C 21,5 C 10,1 km/h
28.09.2016 13:00 21,3 C 57 % 1026,5 hPa 0,0 l/m 2,7 km/h N 12,3 C 21,3 C 11,3 km/h
28.09.2016 14:00 22,2 C 53 % 1025,7 hPa 0,0 l/m 3,3 km/h N 12,0 C 22,2 C 15,3 km/h
28.09.2016 15:00 22,9 C 50 % 1025,1 hPa 0,0 l/m 2,7 km/h N 11,9 C 22,9 C 15,0 km/h
28.09.2016 16:00 22,8 C 50 % 1024,9 hPa 0,0 l/m 3,2 km/h N 11,7 C 22,8 C 20,1 km/h
28.09.2016 17:00 22,2 C 49 % 1024,9 hPa 0,0 l/m 4,0 km/h N 11,0 C 22,2 C 20,9 km/h
28.09.2016 18:00 21,0 C 54 % 1025,1 hPa 0,0 l/m 0,8 km/h N 11,3 C 21,0 C 12,1 km/h
28.09.2016 19:00 20,0 C 60 % 1025,4 hPa 0,0 l/m 0,8 km/h N 11,8 C 20,0 C 10,4 km/h
28.09.2016 20:00 18,4 C 67 % 1025,4 hPa 0,0 l/m 0,0 km/h N 12,0 C 18,4 C 7,3 km/h
28.09.2016 21:00 18,9 C 70 % 1025,3 hPa 0,0 l/m 2,4 km/h N 13,1 C 18,9 C 13,7 km/h
28.09.2016 22:00 19,4 C 68 % 1024,9 hPa 0,0 l/m 4,8 km/h N 13,3 C 19,4 C 20,9 km/h
28.09.2016 23:00 19,0 C 69 % 1024,8 hPa 0,0 l/m 0,8 km/h N 13,1 C 19,0 C 10,5 km/h
29.09.2016 00:00 19,6 C 66 % 1024,4 hPa 0,0 l/m 4,8 km/h N 13,1 C 19,7 C 21,7 km/h
29.09.2016 01:00 20,1 C 63 % 1024,1 hPa 0,0 l/m 6,4 km/h N 12,7 C 19,8 C 24,1 km/h
29.09.2016 02:00 20,2 C 61 % 1024,0 hPa 0,0 l/m 8,9 km/h N 12,4 C 19,2 C 27,4 km/h
29.09.2016 03:00 20,0 C 60 % 1023,8 hPa 0,0 l/m 9,7 km/h N 12,0 C 18,8 C 27,4 km/h
29.09.2016 04:00 19,8 C 62 % 1023,9 hPa 0,0 l/m 7,2 km/h N 12,2 C 19,5 C 21,7 km/h
29.09.2016 05:00 19,3 C 64 % 1023,9 hPa 0,0 l/m 9,6 km/h N 12,2 C 18,1 C 29,8 km/h
29.09.2016 06:00 19,0 C 65 % 1023,8 hPa 0,0 l/m 9,7 km/h N 12,1 C 17,6 C 27,4 km/h
29.09.2016 07:00 18,8 C 64 % 1023,6 hPa 0,0 l/m 7,2 km/h N 11,8 C 18,5 C 20,1 km/h
29.09.2016 08:00 18,8 C 65 % 1023,5 hPa 0,0 l/m 1,6 km/h N 12,1 C 18,8 C 21,8 km/h
29.09.2016 09:00 19,7 C 64 % 1023,6 hPa 0,0 l/m 0,8 km/h N 12,6 C 19,7 C 12,1 km/h
29.09.2016 10:00 21,6 C 58 % 1023,4 hPa 0,0 l/m 4,8 km/h N 12,8 C 21,6 C 20,1 km/h
29.09.2016 11:00 23,5 C 52 % 1022,8 hPa 0,0 l/m 3,2 km/h N 13,0 C 23,5 C 16,1 km/h
29.09.2016 12:00 24,3 C 49 % 1021,9 hPa 0,0 l/m 5,6 km/h N 12,9 C 24,3 C 19,3 km/h
29.09.2016 13:00 27,0 C 42 % 1020,7 hPa 0,0 l/m 1,4 km/h N 13,0 C 27,0 C 8,8 km/h
29.09.2016 14:00 27,5 C 39 % 1019,6 hPa 0,0 l/m 1,4 km/h N 12,1 C 27,5 C 8,0 km/h
29.09.2016 15:00 27,6 C 37 % 1018,7 hPa 0,0 l/m 2,3 km/h N 11,7 C 27,6 C 9,3 km/h
29.09.2016 16:00 27,0 C 38 % 1017,9 hPa 0,0 l/m 1,5 km/h N 11,5 C 27,0 C 8,0 km/h
29.09.2016 17:00 26,2 C 40 % 1017,4 hPa 0,0 l/m 0,6 km/h N 11,3 C 26,2 C 5,2 km/h
29.09.2016 18:00 24,7 C 44 % 1017,2 hPa 0,0 l/m 0,0 km/h N 11,4 C 24,7 C 1,6 km/h
29.09.2016 19:00 20,8 C 56 % 1017,3 hPa 0,0 l/m 0,0 km/h N 11,6 C 20,8 C 0,0 km/h
29.09.2016 20:00 17,4 C 66 % 1017,3 hPa 0,0 l/m 0,0 km/h N 10,9 C 17,4 C 0,4 km/h
29.09.2016 21:00 15,6 C 73 % 1017,3 hPa 0,0 l/m 0,0 km/h N 10,8 C 15,6 C 0,4 km/h
29.09.2016 22:00 14,8 C 76 % 1017,2 hPa 0,0 l/m 0,0 km/h N 10,5 C 14,8 C 0,4 km/h
29.09.2016 23:00 14,7 C 77 % 1017,1 hPa 0,0 l/m 0,1 km/h N 10,7 C 14,7 C 1,6 km/h
30.09.2016 00:00 13,9 C 77 % 1016,9 hPa 0,0 l/m 0,0 km/h N 9,9 C 13,9 C 0,8 km/h
30.09.2016 01:00 12,8 C 80 % 1016,7 hPa 0,0 l/m 0,0 km/h N 9,4 C 12,8 C 1,2 km/h
30.09.2016 02:00 12,0 C 81 % 1016,8 hPa 0,0 l/m 0,1 km/h N 8,8 C 12,0 C 2,0 km/h
30.09.2016 03:00 11,6 C 81 % 1016,7 hPa 0,0 l/m 0,0 km/h N 8,5 C 11,6 C 0,4 km/h
30.09.2016 04:00 11,0 C 82 % 1016,5 hPa 0,0 l/m 0,0 km/h N 8,0 C 11,0 C 0,8 km/h
30.09.2016 05:00 10,9 C 82 % 1016,3 hPa 0,0 l/m 0,0 km/h N 7,9 C 10,9 C 0,8 km/h
30.09.2016 06:00 10,5 C 82 % 1016,5 hPa 0,0 l/m 0,1 km/h N 7,5 C 10,5 C 3,2 km/h
30.09.2016 07:00 10,3 C 82 % 1017,0 hPa 0,0 l/m 0,0 km/h N 7,3 C 10,3 C 0,4 km/h
30.09.2016 08:00 11,7 C 82 % 1017,2 hPa 0,0 l/m 0,0 km/h N 8,8 C 11,7 C 0,0 km/h
30.09.2016 09:00 15,3 C 82 % 1017,3 hPa 0,0 l/m 0,0 km/h N 12,1 C 15,3 C 1,2 km/h
30.09.2016 10:00 20,6 C 66 % 1017,4 hPa 0,0 l/m 0,0 km/h N 14,1 C 20,6 C 2,0 km/h
30.09.2016 11:00 24,3 C 52 % 1017,1 hPa 0,0 l/m 1,0 km/h N 13,6 C 24,3 C 6,4 km/h
30.09.2016 12:00 24,9 C 48 % 1016,7 hPa 0,0 l/m 3,5 km/h N 13,0 C 24,9 C 14,9 km/h
30.09.2016 13:00 25,9 C 44 % 1016,0 hPa 0,0 l/m 1,7 km/h N 12,6 C 25,9 C 11,3 km/h
30.09.2016 14:00 26,1 C 42 % 1015,4 hPa 0,0 l/m 2,0 km/h N 12,2 C 26,1 C 11,3 km/h
30.09.2016 15:00 26,5 C 43 % 1014,8 hPa 0,0 l/m 0,8 km/h N 12,7 C 26,5 C 8,9 km/h
30.09.2016 16:00 26,1 C 46 % 1014,4 hPa 0,0 l/m 1,6 km/h N 13,6 C 26,1 C 10,5 km/h
30.09.2016 17:00 25,0 C 49 % 1014,1 hPa 0,0 l/m 0,8 km/h N 13,4 C 25,0 C 6,4 km/h
30.09.2016 18:00 23,5 C 53 % 1014,2 hPa 0,0 l/m 0,0 km/h N 13,2 C 23,5 C 2,8 km/h
30.09.2016 19:00 21,0 C 60 % 1014,4 hPa 0,0 l/m 0,0 km/h N 12,8 C 21,0 C 0,0 km/h
30.09.2016 20:00 17,8 C 71 % 1014,6 hPa 0,0 l/m 0,0 km/h N 12,4 C 17,8 C 0,0 km/h
30.09.2016 21:00 16,1 C 77 % 1014,4 hPa 0,0 l/m 0,0 km/h N 12,0 C 16,1 C 0,0 km/h
30.09.2016 22:00 15,1 C 79 % 1014,3 hPa 0,0 l/m 0,0 km/h N 11,5 C 15,1 C 0,8 km/h
30.09.2016 23:00 14,2 C 81 % 1014,1 hPa 0,0 l/m 0,0 km/h N 10,9 C 14,2 C 0,8 km/h
01.10.2016 00:00 13,7 C 82 % 1013,8 hPa 0,0 l/m 0,0 km/h N 10,6 C 13,7 C 0,4 km/h
01.10.2016 01:00 13,1 C 82 % 1013,8 hPa 0,0 l/m 0,0 km/h N 10,0 C 13,1 C 0,0 km/h
01.10.2016 02:00 12,5 C 82 % 1013,7 hPa 0,0 l/m 0,0 km/h N 9,5 C 12,5 C 0,8 km/h
01.10.2016 03:00 11,9 C 82 % 1013,2 hPa 0,0 l/m 0,0 km/h N 8,9 C 11,9 C 0,0 km/h
01.10.2016 04:00 11,4 C 82 % 1013,2 hPa 0,0 l/m 0,0 km/h N 8,4 C 11,4 C 0,0 km/h
01.10.2016 05:00 10,8 C 82 % 1013,4 hPa 0,0 l/m 0,0 km/h N 7,9 C 10,8 C 0,8 km/h
01.10.2016 06:00 10,5 C 82 % 1013,2 hPa 0,0 l/m 0,0 km/h N 7,6 C 10,5 C 0,0 km/h
01.10.2016 07:00 10,2 C 82 % 1013,5 hPa 0,0 l/m 0,0 km/h N 7,3 C 10,2 C 0,0 km/h
01.10.2016 08:00 11,0 C 82 % 1013,8 hPa 0,0 l/m 0,0 km/h N 8,1 C 11,0 C 0,0 km/h
01.10.2016 09:00 13,3 C 82 % 1014,0 hPa 0,0 l/m 0,1 km/h N 10,3 C 13,3 C 2,0 km/h
01.10.2016 10:00 16,9 C 81 % 1013,8 hPa 0,0 l/m 0,2 km/h N 13,7 C 16,9 C 4,0 km/h
01.10.2016 11:00 20,5 C 70 % 1013,4 hPa 0,0 l/m 1,3 km/h N 14,8 C 20,5 C 7,2 km/h
01.10.2016 12:00 22,8 C 64 % 1013,0 hPa 0,0 l/m 0,7 km/h N 15,5 C 22,8 C 6,4 km/h
01.10.2016 13:00 24,2 C 59 % 1012,3 hPa 0,0 l/m 1,1 km/h N 15,5 C 24,2 C 6,0 km/h
01.10.2016 14:00 23,9 C 56 % 1011,6 hPa 0,0 l/m 1,4 km/h N 14,6 C 23,9 C 7,6 km/h
01.10.2016 15:00 23,8 C 52 % 1011,2 hPa 0,0 l/m 1,9 km/h N 13,4 C 23,8 C 7,6 km/h
01.10.2016 16:00 22,8 C 55 % 1010,9 hPa 0,0 l/m 1,3 km/h N 13,3 C 22,8 C 7,7 km/h
01.10.2016 17:00 21,9 C 59 % 1010,6 hPa 0,0 l/m 0,7 km/h N 13,6 C 21,9 C 6,8 km/h
01.10.2016 18:00 20,6 C 64 % 1010,7 hPa 0,0 l/m 0,1 km/h N 13,4 C 20,6 C 1,6 km/h
01.10.2016 19:00 18,5 C 70 % 1011,0 hPa 0,0 l/m 0,0 km/h N 12,8 C 18,5 C 0,0 km/h
01.10.2016 20:00 16,8 C 76 % 1011,2 hPa 0,0 l/m 0,0 km/h N 12,5 C 16,8 C 0,0 km/h
01.10.2016 21:00 15,5 C 79 % 1011,0 hPa 0,0 l/m 0,0 km/h N 11,9 C 15,5 C 0,0 km/h
01.10.2016 22:00 14,2 C 81 % 1010,9 hPa 0,0 l/m 0,0 km/h N 11,0 C 14,2 C 0,4 km/h
01.10.2016 23:00 13,2 C 83 % 1010,7 hPa 0,0 l/m 0,0 km/h N 10,4 C 13,2 C 0,0 km/h
02.10.2016 00:00 12,6 C 82 % 1010,8 hPa 0,0 l/m 0,0 km/h N 9,6 C 12,6 C 0,0 km/h
02.10.2016 01:00 12,2 C 82 % 1011,0 hPa 0,0 l/m 0,1 km/h N 9,2 C 12,2 C 1,2 km/h
02.10.2016 02:00 12,0 C 82 % 1011,4 hPa 0,0 l/m 0,4 km/h N 9,0 C 12,0 C 2,0 km/h
02.10.2016 03:00 12,9 C 82 % 1011,7 hPa 0,0 l/m 1,4 km/h N 9,9 C 12,9 C 12,4 km/h
02.10.2016 04:00 13,8 C 82 % 1011,5 hPa 0,0 l/m 0,1 km/h N 10,8 C 13,8 C 1,6 km/h
02.10.2016 05:00 13,6 C 82 % 1011,9 hPa 0,0 l/m 0,2 km/h N 10,6 C 13,6 C 2,8 km/h
02.10.2016 06:00 16,0 C 80 % 1012,0 hPa 0,0 l/m 3,3 km/h N 12,6 C 16,0 C 12,1 km/h
02.10.2016 07:00 17,6 C 72 % 1012,6 hPa 0,0 l/m 3,6 km/h N 12,6 C 17,6 C 13,3 km/h
02.10.2016 08:00 16,6 C 74 % 1013,2 hPa 0,0 l/m 0,0 km/h N 12,0 C 16,6 C 0,8 km/h
02.10.2016 09:00 16,2 C 80 % 1013,6 hPa 0,0 l/m 0,1 km/h N 12,7 C 16,2 C 1,6 km/h
02.10.2016 10:00 18,3 C 74 % 1013,8 hPa 0,0 l/m 3,1 km/h N 13,4 C 18,3 C 11,7 km/h
02.10.2016 11:00 18,7 C 71 % 1013,9 hPa 0,0 l/m 3,3 km/h N 13,2 C 18,7 C 12,5 km/h
02.10.2016 12:00 18,3 C 74 % 1014,0 hPa 0,0 l/m 2,8 km/h N 13,5 C 18,3 C 12,9 km/h
02.10.2016 13:00 18,0 C 76 % 1014,0 hPa 0,0 l/m 3,6 km/h N 13,8 C 18,0 C 16,1 km/h
02.10.2016 14:00 17,9 C 76 % 1014,0 hPa 0,0 l/m 2,5 km/h N 13,6 C 17,9 C 10,1 km/h
02.10.2016 15:00 17,3 C 78 % 1013,9 hPa 0,0 l/m 0,9 km/h N 13,4 C 17,3 C 7,6 km/h
02.10.2016 16:00 16,7 C 80 % 1013,5 hPa 0,5 l/m 0,3 km/h N 13,2 C 16,7 C 5,2 km/h
02.10.2016 17:00 16,2 C 82 % 1013,4 hPa 0,0 l/m 0,2 km/h N 13,0 C 16,2 C 3,6 km/h
02.10.2016 18:00 15,9 C 82 % 1013,2 hPa 0,0 l/m 0,1 km/h N 12,8 C 15,9 C 2,0 km/h
02.10.2016 19:00 15,6 C 82 % 1013,5 hPa 0,0 l/m 0,0 km/h N 12,5 C 15,6 C 0,4 km/h
02.10.2016 20:00 15,2 C 82 % 1014,0 hPa 0,0 l/m 0,0 km/h N 12,1 C 15,2 C 0,0 km/h
02.10.2016 21:00 15,1 C 82 % 1014,4 hPa 0,0 l/m 0,0 km/h N 12,1 C 15,1 C 0,8 km/h
02.10.2016 22:00 15,0 C 82 % 1015,0 hPa 0,0 l/m 5,4 km/h N 11,9 C 15,0 C 24,9 km/h
02.10.2016 23:00 14,1 C 82 % 1015,8 hPa 0,5 l/m 12,1 km/h N 11,1 C 11,3 C 31,8 km/h
Min-Datum _ 27.09.16 29.09.16 01.10.16 - 26.09.16 - 27.09.16 27.09.16 26.09.16
_ Min-Zeit 06:30 15:45 17:00 - 00:00 - 06:30 06:30 00:00
Minimum _ 7,6 C 36 % 1010,6 hPa - 0,0 km/h - 4,9 C 7,6 C 0,0 km/h
Max-Datum _ 29.09.16 01.10.16 28.09.16 02.10.16 02.10.16 - 01.10.16 29.09.16 02.10.16
_ Max-Zeit 14:45 23:45 09:30 16:15 23:45 - 13:00 14:45 03:30
Maximum _ 27,8 C 85 % 1028,3 hPa 0,5 l/m 13,4 km/h
N
- 15,9 C 27,7 C 38,6 km/h
N
Durchschnitt _ 16,5 C 71 % 1019,2 hPa #1,0 l/m 1,1 km/h N 10,8 C 16,4 C 5,5 km/h